sensor_id;sensor_type;location;lat;lon;timestamp;temperature;humidity
35559;DHT22;21661;50.794;-1.066;2024-03-23T00:55:59;7.60;99.90
35559;DHT22;21661;50.794;-1.066;2024-03-23T00:58:27;7.60;99.90
35559;DHT22;21661;50.794;-1.066;2024-03-23T01:00:53;7.50;99.90
35559;DHT22;21661;50.794;-1.066;2024-03-23T01:03:19;7.50;99.90
35559;DHT22;21661;50.794;-1.066;2024-03-23T01:05:44;7.50;99.90
35559;DHT22;21661;50.794;-1.066;2024-03-23T01:08:10;7.50;99.90
35559;DHT22;21661;50.794;-1.066;2024-03-23T01:10:35;7.50;99.90
35559;DHT22;21661;50.794;-1.066;2024-03-23T01:13:01;7.50;99.90
35559;DHT22;21661;50.794;-1.066;2024-03-23T01:15:27;7.50;99.90
35559;DHT22;21661;50.794;-1.066;2024-03-23T01:17:53;7.50;99.90
35559;DHT22;21661;50.794;-1.066;2024-03-23T01:20:18;7.50;99.90
35559;DHT22;21661;50.794;-1.066;2024-03-23T01:22:44;7.50;99.90
35559;DHT22;21661;50.794;-1.066;2024-03-23T01:25:10;7.40;99.90
35559;DHT22;21661;50.794;-1.066;2024-03-23T01:27:35;7.40;99.90
35559;DHT22;21661;50.794;-1.066;2024-03-23T01:30:01;7.50;99.90
35559;DHT22;21661;50.794;-1.066;2024-03-23T01:32:27;7.40;99.90
35559;DHT22;21661;50.794;-1.066;2024-03-23T01:34:52;7.40;99.90
35559;DHT22;21661;50.794;-1.066;2024-03-23T01:37:18;7.30;99.90
35559;DHT22;21661;50.794;-1.066;2024-03-23T01:39:44;7.30;99.90
35559;DHT22;21661;50.794;-1.066;2024-03-23T01:42:09;7.30;99.90
35559;DHT22;21661;50.794;-1.066;2024-03-23T01:44:35;7.20;99.90
35559;DHT22;21661;50.794;-1.066;2024-03-23T01:47:01;7.20;99.90
35559;DHT22;21661;50.794;-1.066;2024-03-23T01:49:27;7.20;99.90
35559;DHT22;21661;50.794;-1.066;2024-03-23T01:51:52;7.10;99.90
35559;DHT22;21661;50.794;-1.066;2024-03-23T01:54:18;7.10;99.90
35559;DHT22;21661;50.794;-1.066;2024-03-23T01:56:44;7.20;99.90
35559;DHT22;21661;50.794;-1.066;2024-03-23T01:59:10;7.10;99.90
35559;DHT22;21661;50.794;-1.066;2024-03-23T02:01:36;7.10;99.90
35559;DHT22;21661;50.794;-1.066;2024-03-23T02:04:02;7.20;99.90
35559;DHT22;21661;50.794;-1.066;2024-03-23T02:06:28;7.10;99.90
35559;DHT22;21661;50.794;-1.066;2024-03-23T02:08:54;7.10;99.90
35559;DHT22;21661;50.794;-1.066;2024-03-23T02:11:20;7.10;99.90
35559;DHT22;21661;50.794;-1.066;2024-03-23T02:13:46;7.20;99.90
35559;DHT22;21661;50.794;-1.066;2024-03-23T02:16:12;7.20;99.90
35559;DHT22;21661;50.794;-1.066;2024-03-23T02:18:38;7.10;99.90
35559;DHT22;21661;50.794;-1.066;2024-03-23T02:21:04;7.10;99.90
35559;DHT22;21661;50.794;-1.066;2024-03-23T02:23:30;7.10;99.90
35559;DHT22;21661;50.794;-1.066;2024-03-23T02:25:56;7.10;99.90
35559;DHT22;21661;50.794;-1.066;2024-03-23T02:28:22;7.10;99.90
35559;DHT22;21661;50.794;-1.066;2024-03-23T02:30:50;7.10;99.90
35559;DHT22;21661;50.794;-1.066;2024-03-23T02:33:16;7.00;99.90
35559;DHT22;21661;50.794;-1.066;2024-03-23T02:35:43;7.00;99.90
35559;DHT22;21661;50.794;-1.066;2024-03-23T02:38:08;7.00;99.90
35559;DHT22;21661;50.794;-1.066;2024-03-23T02:40:34;7.10;99.90
35559;DHT22;21661;50.794;-1.066;2024-03-23T02:43:00;7.00;99.90
35559;DHT22;21661;50.794;-1.066;2024-03-23T02:45:26;7.00;99.90
35559;DHT22;21661;50.794;-1.066;2024-03-23T02:47:51;7.00;99.90
35559;DHT22;21661;50.794;-1.066;2024-03-23T02:50:21;7.00;99.90
35559;DHT22;21661;50.794;-1.066;2024-03-23T02:52:47;7.00;99.90
35559;DHT22;21661;50.794;-1.066;2024-03-23T02:55:13;7.00;99.90
35559;DHT22;21661;50.794;-1.066;2024-03-23T02:57:39;7.00;99.90
35559;DHT22;21661;50.794;-1.066;2024-03-23T03:00:05;7.00;99.90
35559;DHT22;21661;50.794;-1.066;2024-03-23T03:02:32;7.10;99.90
35559;DHT22;21661;50.794;-1.066;2024-03-23T03:04:57;7.00;99.90
35559;DHT22;21661;50.794;-1.066;2024-03-23T03:07:23;7.10;99.90
35559;DHT22;21661;50.794;-1.066;2024-03-23T03:09:49;7.00;99.90
35559;DHT22;21661;50.794;-1.066;2024-03-23T03:12:14;7.00;99.90
35559;DHT22;21661;50.794;-1.066;2024-03-23T03:14:40;7.00;99.90
35559;DHT22;21661;50.794;-1.066;2024-03-23T03:17:05;7.00;99.90
35559;DHT22;21661;50.794;-1.066;2024-03-23T03:19:34;6.90;99.90
35559;DHT22;21661;50.794;-1.066;2024-03-23T03:22:00;6.90;99.90
35559;DHT22;21661;50.794;-1.066;2024-03-23T03:24:25;6.90;99.90
35559;DHT22;21661;50.794;-1.066;2024-03-23T03:26:51;6.90;99.90
35559;DHT22;21661;50.794;-1.066;2024-03-23T03:29:17;6.80;99.90
35559;DHT22;21661;50.794;-1.066;2024-03-23T03:31:43;6.80;99.90
35559;DHT22;21661;50.794;-1.066;2024-03-23T03:34:09;6.80;99.90
35559;DHT22;21661;50.794;-1.066;2024-03-23T03:36:35;6.80;99.90
35559;DHT22;21661;50.794;-1.066;2024-03-23T03:39:00;6.80;99.90
35559;DHT22;21661;50.794;-1.066;2024-03-23T03:41:28;6.80;99.90
35559;DHT22;21661;50.794;-1.066;2024-03-23T03:43:54;6.80;99.90
35559;DHT22;21661;50.794;-1.066;2024-03-23T03:46:20;6.80;99.90
35559;DHT22;21661;50.794;-1.066;2024-03-23T03:48:46;6.80;99.90
35559;DHT22;21661;50.794;-1.066;2024-03-23T03:51:13;6.80;99.90
35559;DHT22;21661;50.794;-1.066;2024-03-23T03:53:39;6.80;99.90
35559;DHT22;21661;50.794;-1.066;2024-03-23T03:56:05;6.80;99.90
35559;DHT22;21661;50.794;-1.066;2024-03-23T03:58:30;6.80;99.90
35559;DHT22;21661;50.794;-1.066;2024-03-23T04:00:56;6.80;99.90
35559;DHT22;21661;50.794;-1.066;2024-03-23T04:03:22;6.70;99.90
35559;DHT22;21661;50.794;-1.066;2024-03-23T04:05:54;6.70;99.90
35559;DHT22;21661;50.794;-1.066;2024-03-23T04:08:20;6.70;99.90
35559;DHT22;21661;50.794;-1.066;2024-03-23T04:10:46;6.60;99.90
35559;DHT22;21661;50.794;-1.066;2024-03-23T04:13:12;6.60;99.90
35559;DHT22;21661;50.794;-1.066;2024-03-23T04:15:38;6.60;99.90
35559;DHT22;21661;50.794;-1.066;2024-03-23T04:18:04;6.60;99.90
35559;DHT22;21661;50.794;-1.066;2024-03-23T04:20:30;6.60;99.90
35559;DHT22;21661;50.794;-1.066;2024-03-23T04:22:58;6.60;99.90
35559;DHT22;21661;50.794;-1.066;2024-03-23T04:25:24;6.60;99.90
35559;DHT22;21661;50.794;-1.066;2024-03-23T04:27:49;6.60;99.90
35559;DHT22;21661;50.794;-1.066;2024-03-23T04:30:15;6.60;99.90
35559;DHT22;21661;50.794;-1.066;2024-03-23T04:32:41;6.60;99.90
35559;DHT22;21661;50.794;-1.066;2024-03-23T04:35:07;6.60;99.90
35559;DHT22;21661;50.794;-1.066;2024-03-23T04:37:39;6.60;99.90
35559;DHT22;21661;50.794;-1.066;2024-03-23T04:40:07;6.60;99.90
35559;DHT22;21661;50.794;-1.066;2024-03-23T04:42:33;6.60;99.90
35559;DHT22;21661;50.794;-1.066;2024-03-23T04:44:59;6.50;99.90
35559;DHT22;21661;50.794;-1.066;2024-03-23T04:47:25;6.50;99.90
35559;DHT22;21661;50.794;-1.066;2024-03-23T04:49:51;6.50;99.90
35559;DHT22;21661;50.794;-1.066;2024-03-23T04:52:17;6.50;99.90
35559;DHT22;21661;50.794;-1.066;2024-03-23T04:54:43;6.50;99.90
35559;DHT22;21661;50.794;-1.066;2024-03-23T04:57:10;6.50;99.90
35559;DHT22;21661;50.794;-1.066;2024-03-23T04:59:36;6.50;99.90
35559;DHT22;21661;50.794;-1.066;2024-03-23T05:02:01;6.50;99.90
35559;DHT22;21661;50.794;-1.066;2024-03-23T05:04:28;6.50;99.90
35559;DHT22;21661;50.794;-1.066;2024-03-23T05:06:53;6.50;99.90
35559;DHT22;21661;50.794;-1.066;2024-03-23T05:09:19;6.50;99.90
35559;DHT22;21661;50.794;-1.066;2024-03-23T05:11:45;6.50;99.90
35559;DHT22;21661;50.794;-1.066;2024-03-23T05:14:13;6.50;99.90
35559;DHT22;21661;50.794;-1.066;2024-03-23T05:16:39;6.50;99.90
35559;DHT22;21661;50.794;-1.066;2024-03-23T05:19:05;6.50;99.90
35559;DHT22;21661;50.794;-1.066;2024-03-23T05:21:30;6.50;99.90
35559;DHT22;21661;50.794;-1.066;2024-03-23T05:23:56;6.50;99.90
35559;DHT22;21661;50.794;-1.066;2024-03-23T05:26:22;6.50;99.90
35559;DHT22;21661;50.794;-1.066;2024-03-23T05:28:48;6.50;99.90
35559;DHT22;21661;50.794;-1.066;2024-03-23T05:31:23;6.60;99.90
35559;DHT22;21661;50.794;-1.066;2024-03-23T05:33:49;6.60;99.90
35559;DHT22;21661;50.794;-1.066;2024-03-23T05:36:15;6.50;99.90
35559;DHT22;21661;50.794;-1.066;2024-03-23T05:38:40;6.50;99.90
35559;DHT22;21661;50.794;-1.066;2024-03-23T05:41:06;6.50;99.90
35559;DHT22;21661;50.794;-1.066;2024-03-23T05:43:31;6.50;99.90
35559;DHT22;21661;50.794;-1.066;2024-03-23T05:46:00;6.50;99.90
35559;DHT22;21661;50.794;-1.066;2024-03-23T05:48:31;6.50;99.90
35559;DHT22;21661;50.794;-1.066;2024-03-23T05:50:57;6.50;99.90
35559;DHT22;21661;50.794;-1.066;2024-03-23T05:53:23;6.50;99.90
35559;DHT22;21661;50.794;-1.066;2024-03-23T05:55:50;6.50;99.90
35559;DHT22;21661;50.794;-1.066;2024-03-23T05:58:17;6.50;99.90
35559;DHT22;21661;50.794;-1.066;2024-03-23T06:00:43;6.50;99.90
35559;DHT22;21661;50.794;-1.066;2024-03-23T06:03:10;6.50;99.90
35559;DHT22;21661;50.794;-1.066;2024-03-23T06:05:37;6.50;99.90
35559;DHT22;21661;50.794;-1.066;2024-03-23T06:08:03;6.60;99.90
35559;DHT22;21661;50.794;-1.066;2024-03-23T06:10:29;6.60;99.90
35559;DHT22;21661;50.794;-1.066;2024-03-23T06:12:55;6.60;99.90
35559;DHT22;21661;50.794;-1.066;2024-03-23T06:15:20;6.60;99.90
35559;DHT22;21661;50.794;-1.066;2024-03-23T06:17:48;6.60;99.90
35559;DHT22;21661;50.794;-1.066;2024-03-23T06:20:13;6.70;99.90
35559;DHT22;21661;50.794;-1.066;2024-03-23T06:22:39;6.60;99.90
35559;DHT22;21661;50.794;-1.066;2024-03-23T06:25:06;6.60;99.90
35559;DHT22;21661;50.794;-1.066;2024-03-23T06:27:32;6.60;99.90
35559;DHT22;21661;50.794;-1.066;2024-03-23T06:29:59;6.60;99.90
35559;DHT22;21661;50.794;-1.066;2024-03-23T06:32:24;6.60;99.90
35559;DHT22;21661;50.794;-1.066;2024-03-23T06:34:50;6.60;99.90
35559;DHT22;21661;50.794;-1.066;2024-03-23T06:37:16;6.60;99.90
35559;DHT22;21661;50.794;-1.066;2024-03-23T06:39:41;6.60;99.90
35559;DHT22;21661;50.794;-1.066;2024-03-23T06:42:07;6.60;99.90
35559;DHT22;21661;50.794;-1.066;2024-03-23T06:44:33;6.60;99.90
35559;DHT22;21661;50.794;-1.066;2024-03-23T06:46:59;6.70;99.90
35559;DHT22;21661;50.794;-1.066;2024-03-23T06:49:25;6.60;99.90
35559;DHT22;21661;50.794;-1.066;2024-03-23T06:51:50;6.70;99.90
35559;DHT22;21661;50.794;-1.066;2024-03-23T06:54:19;6.70;99.90
35559;DHT22;21661;50.794;-1.066;2024-03-23T06:56:45;6.70;99.90
35559;DHT22;21661;50.794;-1.066;2024-03-23T06:59:12;6.70;99.90
35559;DHT22;21661;50.794;-1.066;2024-03-23T07:01:37;6.60;99.90
35559;DHT22;21661;50.794;-1.066;2024-03-23T07:04:04;6.60;99.90
35559;DHT22;21661;50.794;-1.066;2024-03-23T07:06:30;6.70;99.90
35559;DHT22;21661;50.794;-1.066;2024-03-23T07:08:56;6.70;99.90
35559;DHT22;21661;50.794;-1.066;2024-03-23T07:11:23;6.80;99.90
35559;DHT22;21661;50.794;-1.066;2024-03-23T07:13:52;6.70;99.90
35559;DHT22;21661;50.794;-1.066;2024-03-23T07:16:23;6.80;99.90
35559;DHT22;21661;50.794;-1.066;2024-03-23T07:18:50;6.80;99.90
35559;DHT22;21661;50.794;-1.066;2024-03-23T07:21:16;6.90;99.90
35559;DHT22;21661;50.794;-1.066;2024-03-23T07:23:44;6.90;99.90
35559;DHT22;21661;50.794;-1.066;2024-03-23T07:26:10;7.00;99.90
35559;DHT22;21661;50.794;-1.066;2024-03-23T07:28:36;7.00;99.90
35559;DHT22;21661;50.794;-1.066;2024-03-23T07:31:04;7.00;99.90
35559;DHT22;21661;50.794;-1.066;2024-03-23T07:33:30;7.00;99.90
35559;DHT22;21661;50.794;-1.066;2024-03-23T07:35:56;7.10;99.90
35559;DHT22;21661;50.794;-1.066;2024-03-23T07:38:23;7.10;99.90
35559;DHT22;21661;50.794;-1.066;2024-03-23T07:40:48;7.10;99.90
35559;DHT22;21661;50.794;-1.066;2024-03-23T07:43:19;7.20;99.90
35559;DHT22;21661;50.794;-1.066;2024-03-23T07:45:51;7.20;99.90
35559;DHT22;21661;50.794;-1.066;2024-03-23T07:48:18;7.20;99.90
35559;DHT22;21661;50.794;-1.066;2024-03-23T07:50:43;7.30;99.90
35559;DHT22;21661;50.794;-1.066;2024-03-23T07:53:09;7.30;99.90
35559;DHT22;21661;50.794;-1.066;2024-03-23T07:55:35;7.40;99.90
35559;DHT22;21661;50.794;-1.066;2024-03-23T07:58:00;7.40;99.90
35559;DHT22;21661;50.794;-1.066;2024-03-23T08:00:26;7.50;99.90
35559;DHT22;21661;50.794;-1.066;2024-03-23T08:02:51;7.50;99.90
35559;DHT22;21661;50.794;-1.066;2024-03-23T08:05:17;7.70;99.90
35559;DHT22;21661;50.794;-1.066;2024-03-23T08:07:43;7.60;99.90
35559;DHT22;21661;50.794;-1.066;2024-03-23T08:10:08;7.60;99.90
35559;DHT22;21661;50.794;-1.066;2024-03-23T08:12:34;7.60;99.90
35559;DHT22;21661;50.794;-1.066;2024-03-23T08:14:59;7.60;99.90
35559;DHT22;21661;50.794;-1.066;2024-03-23T08:17:25;7.60;99.90
35559;DHT22;21661;50.794;-1.066;2024-03-23T08:19:51;7.70;99.90
35559;DHT22;21661;50.794;-1.066;2024-03-23T08:22:18;7.70;99.90
35559;DHT22;21661;50.794;-1.066;2024-03-23T08:24:44;7.70;99.90
35559;DHT22;21661;50.794;-1.066;2024-03-23T08:27:10;7.70;99.90
35559;DHT22;21661;50.794;-1.066;2024-03-23T08:29:35;7.80;99.90
35559;DHT22;21661;50.794;-1.066;2024-03-23T08:32:01;7.80;99.90
35559;DHT22;21661;50.794;-1.066;2024-03-23T08:34:26;7.90;99.90
35559;DHT22;21661;50.794;-1.066;2024-03-23T08:36:52;7.90;99.90
35559;DHT22;21661;50.794;-1.066;2024-03-23T08:39:17;8.00;99.90
35559;DHT22;21661;50.794;-1.066;2024-03-23T08:41:43;8.00;99.90
35559;DHT22;21661;50.794;-1.066;2024-03-23T08:44:11;8.30;99.90
35559;DHT22;21661;50.794;-1.066;2024-03-23T08:46:37;8.30;99.90
35559;DHT22;21661;50.794;-1.066;2024-03-23T08:49:02;8.40;99.90
35559;DHT22;21661;50.794;-1.066;2024-03-23T08:51:28;8.30;99.90
35559;DHT22;21661;50.794;-1.066;2024-03-23T08:53:54;8.40;99.90
35559;DHT22;21661;50.794;-1.066;2024-03-23T08:56:19;8.40;99.90
35559;DHT22;21661;50.794;-1.066;2024-03-23T08:58:45;8.50;99.90
35559;DHT22;21661;50.794;-1.066;2024-03-23T09:01:12;8.50;99.90
35559;DHT22;21661;50.794;-1.066;2024-03-23T09:03:41;8.50;99.90
35559;DHT22;21661;50.794;-1.066;2024-03-23T09:06:12;8.40;99.90
35559;DHT22;21661;50.794;-1.066;2024-03-23T09:08:38;8.50;99.90
35559;DHT22;21661;50.794;-1.066;2024-03-23T09:11:08;8.50;99.90
35559;DHT22;21661;50.794;-1.066;2024-03-23T09:13:38;8.40;99.90
35559;DHT22;21661;50.794;-1.066;2024-03-23T09:16:04;8.50;99.90
35559;DHT22;21661;50.794;-1.066;2024-03-23T09:18:34;8.60;99.90
35559;DHT22;21661;50.794;-1.066;2024-03-23T09:21:01;8.60;99.90
35559;DHT22;21661;50.794;-1.066;2024-03-23T09:23:27;8.70;99.90
35559;DHT22;21661;50.794;-1.066;2024-03-23T09:25:52;8.80;99.90
35559;DHT22;21661;50.794;-1.066;2024-03-23T09:28:18;8.90;99.90
35559;DHT22;21661;50.794;-1.066;2024-03-23T09:30:44;9.00;99.90
35559;DHT22;21661;50.794;-1.066;2024-03-23T09:33:13;9.10;99.90
35559;DHT22;21661;50.794;-1.066;2024-03-23T09:35:40;9.10;99.90
35559;DHT22;21661;50.794;-1.066;2024-03-23T09:38:06;9.20;99.90
35559;DHT22;21661;50.794;-1.066;2024-03-23T09:40:41;9.40;99.90
35559;DHT22;21661;50.794;-1.066;2024-03-23T09:43:10;9.60;99.90
35559;DHT22;21661;50.794;-1.066;2024-03-23T09:45:39;9.60;99.90
35559;DHT22;21661;50.794;-1.066;2024-03-23T09:48:07;9.60;99.90
35559;DHT22;21661;50.794;-1.066;2024-03-23T09:50:33;9.60;99.90
35559;DHT22;21661;50.794;-1.066;2024-03-23T09:52:59;9.60;99.90
35559;DHT22;21661;50.794;-1.066;2024-03-23T09:55:24;9.70;99.90
35559;DHT22;21661;50.794;-1.066;2024-03-23T09:57:50;9.60;99.90
35559;DHT22;21661;50.794;-1.066;2024-03-23T10:00:16;9.60;99.90
35559;DHT22;21661;50.794;-1.066;2024-03-23T10:02:42;9.60;99.90
35559;DHT22;21661;50.794;-1.066;2024-03-23T10:05:28;9.60;99.90
35559;DHT22;21661;50.794;-1.066;2024-03-23T10:07:54;9.80;99.90
35559;DHT22;21661;50.794;-1.066;2024-03-23T10:10:20;9.80;99.90
35559;DHT22;21661;50.794;-1.066;2024-03-23T10:12:50;9.80;99.90
35559;DHT22;21661;50.794;-1.066;2024-03-23T10:15:25;9.90;99.90
35559;DHT22;21661;50.794;-1.066;2024-03-23T10:17:51;9.90;99.90
35559;DHT22;21661;50.794;-1.066;2024-03-23T10:20:23;9.80;99.90
35559;DHT22;21661;50.794;-1.066;2024-03-23T10:22:50;9.70;99.90
35559;DHT22;21661;50.794;-1.066;2024-03-23T10:25:17;9.70;99.90
35559;DHT22;21661;50.794;-1.066;2024-03-23T10:27:43;9.50;99.90
35559;DHT22;21661;50.794;-1.066;2024-03-23T10:30:13;9.50;99.90
35559;DHT22;21661;50.794;-1.066;2024-03-23T10:32:41;9.50;99.90
35559;DHT22;21661;50.794;-1.066;2024-03-23T10:37:43;9.60;99.90
35559;DHT22;21661;50.794;-1.066;2024-03-23T10:40:11;9.50;99.90
35559;DHT22;21661;50.794;-1.066;2024-03-23T10:42:37;9.30;99.90
35559;DHT22;21661;50.794;-1.066;2024-03-23T10:45:04;9.00;99.90
35559;DHT22;21661;50.794;-1.066;2024-03-23T10:47:31;9.00;99.90
35559;DHT22;21661;50.794;-1.066;2024-03-23T10:49:57;8.90;99.90
35559;DHT22;21661;50.794;-1.066;2024-03-23T10:52:24;8.90;99.90
35559;DHT22;21661;50.794;-1.066;2024-03-23T10:54:51;9.10;99.90
35559;DHT22;21661;50.794;-1.066;2024-03-23T10:57:25;9.30;99.90
35559;DHT22;21661;50.794;-1.066;2024-03-23T10:59:52;9.50;99.90
35559;DHT22;21661;50.794;-1.066;2024-03-23T11:02:20;9.70;99.90
35559;DHT22;21661;50.794;-1.066;2024-03-23T11:04:46;10.00;99.90
35559;DHT22;21661;50.794;-1.066;2024-03-23T11:09:53;10.20;99.90
35559;DHT22;21661;50.794;-1.066;2024-03-23T11:15:14;10.10;99.90
35559;DHT22;21661;50.794;-1.066;2024-03-23T11:17:40;9.80;99.90
35559;DHT22;21661;50.794;-1.066;2024-03-23T11:20:07;9.60;99.90
35559;DHT22;21661;50.794;-1.066;2024-03-23T11:25:08;9.50;99.90
35559;DHT22;21661;50.794;-1.066;2024-03-23T11:27:37;9.50;99.90
35559;DHT22;21661;50.794;-1.066;2024-03-23T11:30:16;9.50;99.90
35559;DHT22;21661;50.794;-1.066;2024-03-23T11:32:46;9.50;99.90
35559;DHT22;21661;50.794;-1.066;2024-03-23T11:38:12;9.40;99.90
35559;DHT22;21661;50.794;-1.066;2024-03-23T11:40:44;9.60;99.90
35559;DHT22;21661;50.794;-1.066;2024-03-23T11:43:12;9.70;99.90
35559;DHT22;21661;50.794;-1.066;2024-03-23T11:48:12;9.80;99.90
35559;DHT22;21661;50.794;-1.066;2024-03-23T11:50:39;9.80;99.90
35559;DHT22;21661;50.794;-1.066;2024-03-23T11:58:05;9.80;99.90
35559;DHT22;21661;50.794;-1.066;2024-03-23T12:00:31;9.60;99.90
35559;DHT22;21661;50.794;-1.066;2024-03-23T12:03:01;9.60;99.90
35559;DHT22;21661;50.794;-1.066;2024-03-23T12:05:27;9.60;99.90
35559;DHT22;21661;50.794;-1.066;2024-03-23T12:07:53;9.10;99.90
35559;DHT22;21661;50.794;-1.066;2024-03-23T12:10:19;8.90;99.90
35559;DHT22;21661;50.794;-1.066;2024-03-23T12:12:45;8.70;99.90
35559;DHT22;21661;50.794;-1.066;2024-03-23T12:15:11;8.50;99.90
35559;DHT22;21661;50.794;-1.066;2024-03-23T12:17:38;8.40;99.90
35559;DHT22;21661;50.794;-1.066;2024-03-23T12:20:04;8.30;99.90
35559;DHT22;21661;50.794;-1.066;2024-03-23T12:22:30;8.30;99.90
35559;DHT22;21661;50.794;-1.066;2024-03-23T12:24:56;8.20;99.90
35559;DHT22;21661;50.794;-1.066;2024-03-23T12:27:22;8.20;99.90
35559;DHT22;21661;50.794;-1.066;2024-03-23T12:29:48;8.10;99.90
35559;DHT22;21661;50.794;-1.066;2024-03-23T12:32:14;8.20;99.90
35559;DHT22;21661;50.794;-1.066;2024-03-23T12:34:40;8.10;99.90
35559;DHT22;21661;50.794;-1.066;2024-03-23T12:37:06;8.20;99.90
35559;DHT22;21661;50.794;-1.066;2024-03-23T12:39:32;8.20;99.90
35559;DHT22;21661;50.794;-1.066;2024-03-23T12:41:58;8.20;99.90
35559;DHT22;21661;50.794;-1.066;2024-03-23T12:44:23;8.30;99.90
35559;DHT22;21661;50.794;-1.066;2024-03-23T12:46:49;8.40;99.90
35559;DHT22;21661;50.794;-1.066;2024-03-23T12:49:14;8.40;99.90
35559;DHT22;21661;50.794;-1.066;2024-03-23T12:51:49;8.40;99.90
35559;DHT22;21661;50.794;-1.066;2024-03-23T12:54:18;8.20;99.90
35559;DHT22;21661;50.794;-1.066;2024-03-23T12:56:45;8.20;99.90
35559;DHT22;21661;50.794;-1.066;2024-03-23T12:59:11;8.20;99.90
35559;DHT22;21661;50.794;-1.066;2024-03-23T13:01:38;8.40;99.90
35559;DHT22;21661;50.794;-1.066;2024-03-23T13:04:04;8.60;99.90
35559;DHT22;21661;50.794;-1.066;2024-03-23T13:06:29;8.80;99.90
35559;DHT22;21661;50.794;-1.066;2024-03-23T13:09:02;9.00;99.90
35559;DHT22;21661;50.794;-1.066;2024-03-23T13:11:31;9.20;99.90
35559;DHT22;21661;50.794;-1.066;2024-03-23T13:13:56;9.20;99.90
35559;DHT22;21661;50.794;-1.066;2024-03-23T13:16:22;9.20;99.90
35559;DHT22;21661;50.794;-1.066;2024-03-23T13:18:48;9.10;99.90
35559;DHT22;21661;50.794;-1.066;2024-03-23T13:21:14;9.10;99.90
35559;DHT22;21661;50.794;-1.066;2024-03-23T13:23:40;8.80;99.90
35559;DHT22;21661;50.794;-1.066;2024-03-23T13:26:07;8.70;99.90
35559;DHT22;21661;50.794;-1.066;2024-03-23T13:28:33;8.50;99.90
35559;DHT22;21661;50.794;-1.066;2024-03-23T13:30:58;8.50;99.90
35559;DHT22;21661;50.794;-1.066;2024-03-23T13:33:28;8.40;99.90
35559;DHT22;21661;50.794;-1.066;2024-03-23T13:35:55;8.40;99.90
35559;DHT22;21661;50.794;-1.066;2024-03-23T13:38:22;8.40;99.90
35559;DHT22;21661;50.794;-1.066;2024-03-23T13:41:00;8.40;99.90
35559;DHT22;21661;50.794;-1.066;2024-03-23T13:43:27;8.50;99.90
35559;DHT22;21661;50.794;-1.066;2024-03-23T13:45:56;8.60;99.90
35559;DHT22;21661;50.794;-1.066;2024-03-23T13:48:25;8.80;99.90
35559;DHT22;21661;50.794;-1.066;2024-03-23T13:51:01;8.90;99.90
35559;DHT22;21661;50.794;-1.066;2024-03-23T13:53:30;9.10;99.90
35559;DHT22;21661;50.794;-1.066;2024-03-23T13:55:56;9.20;99.90
35559;DHT22;21661;50.794;-1.066;2024-03-23T13:58:22;9.30;99.90
35559;DHT22;21661;50.794;-1.066;2024-03-23T14:00:49;9.40;99.90
35559;DHT22;21661;50.794;-1.066;2024-03-23T14:03:14;9.60;99.90
35559;DHT22;21661;50.794;-1.066;2024-03-23T14:05:41;9.80;99.90
35559;DHT22;21661;50.794;-1.066;2024-03-23T14:08:07;9.70;99.90
35559;DHT22;21661;50.794;-1.066;2024-03-23T14:10:33;9.70;99.90
35559;DHT22;21661;50.794;-1.066;2024-03-23T14:12:59;9.60;99.90
35559;DHT22;21661;50.794;-1.066;2024-03-23T14:15:29;9.60;99.90
35559;DHT22;21661;50.794;-1.066;2024-03-23T14:17:55;9.50;99.90
35559;DHT22;21661;50.794;-1.066;2024-03-23T14:20:21;9.40;99.90
35559;DHT22;21661;50.794;-1.066;2024-03-23T14:22:48;9.30;99.90
35559;DHT22;21661;50.794;-1.066;2024-03-23T14:25:14;9.30;99.90
35559;DHT22;21661;50.794;-1.066;2024-03-23T14:27:40;9.20;99.90
35559;DHT22;21661;50.794;-1.066;2024-03-23T14:30:06;9.30;99.90
35559;DHT22;21661;50.794;-1.066;2024-03-23T14:32:31;9.30;99.90
35559;DHT22;21661;50.794;-1.066;2024-03-23T14:35:03;9.30;99.90
35559;DHT22;21661;50.794;-1.066;2024-03-23T14:37:28;9.50;99.90
35559;DHT22;21661;50.794;-1.066;2024-03-23T14:39:56;9.50;99.90
35559;DHT22;21661;50.794;-1.066;2024-03-23T14:42:22;9.50;99.90
35559;DHT22;21661;50.794;-1.066;2024-03-23T14:44:49;9.40;99.90
35559;DHT22;21661;50.794;-1.066;2024-03-23T14:47:15;9.30;99.90
35559;DHT22;21661;50.794;-1.066;2024-03-23T14:49:40;9.40;99.90
35559;DHT22;21661;50.794;-1.066;2024-03-23T14:52:06;9.20;99.90
35559;DHT22;21661;50.794;-1.066;2024-03-23T14:54:32;9.10;99.90
35559;DHT22;21661;50.794;-1.066;2024-03-23T14:56:58;9.10;99.90
35559;DHT22;21661;50.794;-1.066;2024-03-23T14:59:24;9.00;99.90
35559;DHT22;21661;50.794;-1.066;2024-03-23T15:01:49;9.10;99.90
35559;DHT22;21661;50.794;-1.066;2024-03-23T15:04:16;9.20;99.90
35559;DHT22;21661;50.794;-1.066;2024-03-23T15:06:41;9.20;99.90
35559;DHT22;21661;50.794;-1.066;2024-03-23T15:09:07;9.10;99.90
35559;DHT22;21661;50.794;-1.066;2024-03-23T15:11:37;9.10;99.90
35559;DHT22;21661;50.794;-1.066;2024-03-23T15:14:02;9.20;99.90
35559;DHT22;21661;50.794;-1.066;2024-03-23T15:16:28;9.20;99.90
35559;DHT22;21661;50.794;-1.066;2024-03-23T15:18:54;9.30;99.90
35559;DHT22;21661;50.794;-1.066;2024-03-23T15:21:19;9.30;99.90
35559;DHT22;21661;50.794;-1.066;2024-03-23T15:23:47;9.30;99.90
35559;DHT22;21661;50.794;-1.066;2024-03-23T15:26:13;9.40;99.90
35559;DHT22;21661;50.794;-1.066;2024-03-23T15:28:38;9.40;99.90
35559;DHT22;21661;50.794;-1.066;2024-03-23T15:31:18;9.40;99.90
35559;DHT22;21661;50.794;-1.066;2024-03-23T15:33:44;9.40;99.90
35559;DHT22;21661;50.794;-1.066;2024-03-23T15:36:09;9.40;99.90
35559;DHT22;21661;50.794;-1.066;2024-03-23T15:38:35;9.50;99.90
35559;DHT22;21661;50.794;-1.066;2024-03-23T15:41:01;9.50;99.90
35559;DHT22;21661;50.794;-1.066;2024-03-23T15:43:27;9.60;99.90
35559;DHT22;21661;50.794;-1.066;2024-03-23T15:45:54;9.60;99.90
35559;DHT22;21661;50.794;-1.066;2024-03-23T15:48:20;9.60;99.90
35559;DHT22;21661;50.794;-1.066;2024-03-23T15:50:53;9.70;99.90
35559;DHT22;21661;50.794;-1.066;2024-03-23T15:53:23;9.90;99.90
35559;DHT22;21661;50.794;-1.066;2024-03-23T15:56:02;10.00;99.90
35559;DHT22;21661;50.794;-1.066;2024-03-23T15:58:29;10.00;99.90
35559;DHT22;21661;50.794;-1.066;2024-03-23T16:03:28;9.80;99.90
35559;DHT22;21661;50.794;-1.066;2024-03-23T16:05:58;8.90;99.90
35559;DHT22;21661;50.794;-1.066;2024-03-23T16:08:24;8.30;99.90
35559;DHT22;21661;50.794;-1.066;2024-03-23T16:10:50;8.00;99.90
35559;DHT22;21661;50.794;-1.066;2024-03-23T16:13:17;7.70;99.90
35559;DHT22;21661;50.794;-1.066;2024-03-23T16:15:43;7.50;99.90
35559;DHT22;21661;50.794;-1.066;2024-03-23T16:18:09;7.20;99.90
35559;DHT22;21661;50.794;-1.066;2024-03-23T16:20:35;6.80;99.90
35559;DHT22;21661;50.794;-1.066;2024-03-23T16:23:02;6.50;99.90
35559;DHT22;21661;50.794;-1.066;2024-03-23T16:25:28;6.40;99.90
35559;DHT22;21661;50.794;-1.066;2024-03-23T16:27:54;6.40;99.90
35559;DHT22;21661;50.794;-1.066;2024-03-23T16:30:20;6.60;99.90
35559;DHT22;21661;50.794;-1.066;2024-03-23T16:32:47;6.60;99.90
35559;DHT22;21661;50.794;-1.066;2024-03-23T16:35:13;6.70;99.90
35559;DHT22;21661;50.794;-1.066;2024-03-23T16:37:39;6.70;99.90
35559;DHT22;21661;50.794;-1.066;2024-03-23T16:40:05;6.70;99.90
35559;DHT22;21661;50.794;-1.066;2024-03-23T16:42:33;6.70;99.90
35559;DHT22;21661;50.794;-1.066;2024-03-23T16:44:59;6.70;99.90